Time;durP1;ratioP1;P1;durP2;ratioP2;P2;SDS_P1;SDS_P2;PMS_P1;PMS_P2;Temp;Humidity;BMP_temperature;BMP_pressure;BME280_temperature;BME280_humidity;BME280_pressure;Samples;Min_cycle;Max_cycle;Signal;HPM_P1;HPM_P2
2021/01/25 00:02:03;;;;;;;0.60;0.40;;;2.80;99.90;;;;;;5011093;28;20179;-85
2021/01/25 00:04:28;;;;;;;0.00;0.00;;;2.80;99.90;;;;;;5011045;28;20230;-85
2021/01/25 00:06:54;;;;;;;0.17;0.17;;;2.70;99.90;;;;;;5011968;28;20186;-84
2021/01/25 00:09:19;;;;;;;0.30;0.30;;;2.60;99.90;;;;;;5011306;28;20699;-84
2021/01/25 00:11:45;;;;;;;0.53;0.53;;;2.70;99.90;;;;;;5010488;28;20179;-85
2021/01/25 00:14:10;;;;;;;0.00;0.00;;;2.60;99.90;;;;;;5011159;28;20202;-84
2021/01/25 00:16:36;;;;;;;0.43;0.40;;;2.50;99.90;;;;;;5012279;28;20176;-84
2021/01/25 00:19:01;;;;;;;3.63;0.73;;;2.60;99.90;;;;;;5004842;28;20219;-85
2021/01/25 00:21:27;;;;;;;0.33;0.33;;;2.40;99.90;;;;;;5006175;28;20210;-84
2021/01/25 00:23:52;;;;;;;0.30;0.30;;;2.00;99.90;;;;;;5011204;28;20188;-84
2021/01/25 00:26:18;;;;;;;0.33;0.33;;;1.70;99.90;;;;;;5012181;28;20183;-84
2021/01/25 00:28:44;;;;;;;0.23;0.23;;;1.60;99.90;;;;;;5011785;28;20670;-87
2021/01/25 00:31:09;;;;;;;0.50;0.50;;;1.40;99.90;;;;;;5010389;28;20183;-84
2021/01/25 00:33:35;;;;;;;0.30;0.30;;;1.30;99.90;;;;;;5004693;28;20179;-85
2021/01/25 00:36:00;;;;;;;0.43;0.30;;;1.20;99.90;;;;;;5010913;28;20187;-84
2021/01/25 00:38:26;;;;;;;0.10;0.10;;;1.20;99.90;;;;;;5010470;28;20207;-86
2021/01/25 00:40:51;;;;;;;0.20;0.20;;;1.20;99.90;;;;;;5010051;28;20191;-85
2021/01/25 00:43:17;;;;;;;0.20;0.20;;;1.10;99.90;;;;;;5011970;28;20183;-84
2021/01/25 00:45:52;;;;;;;0.33;0.33;;;1.20;99.90;;;;;;5007497;28;20899;-84
2021/01/25 00:48:17;;;;;;;0.30;0.30;;;1.20;99.90;;;;;;5010811;28;20190;-85
2021/01/25 00:50:43;;;;;;;0.20;0.20;;;1.10;99.90;;;;;;5009982;28;20207;-83
2021/01/25 00:53:08;;;;;;;0.53;0.53;;;1.10;99.90;;;;;;5011779;28;20210;-84
2021/01/25 00:55:34;;;;;;;0.30;0.30;;;1.10;99.90;;;;;;5011250;28;20195;-86
2021/01/25 00:58:01;;;;;;;0.27;0.27;;;1.10;99.90;;;;;;5014158;28;20203;-84
2021/01/25 01:00:26;;;;;;;0.83;0.33;;;1.10;99.90;;;;;;5009961;28;20278;-84
2021/01/25 01:02:52;;;;;;;0.20;0.20;;;1.10;99.90;;;;;;5014281;28;20659;-84
2021/01/25 01:05:17;;;;;;;0.40;0.30;;;1.00;99.90;;;;;;5014225;28;20214;-85
2021/01/25 01:07:43;;;;;;;0.00;0.00;;;1.00;99.90;;;;;;5011708;28;20201;-84
2021/01/25 01:10:09;;;;;;;0.30;0.30;;;1.00;99.90;;;;;;5006410;28;20199;-85
2021/01/25 01:12:34;;;;;;;0.30;0.20;;;1.20;99.90;;;;;;5014158;28;20260;-84
2021/01/25 01:15:00;;;;;;;0.93;0.83;;;1.10;99.90;;;;;;5015147;28;20262;-84
2021/01/25 01:17:26;;;;;;;0.40;0.40;;;1.00;99.90;;;;;;5015170;28;20947;-83
2021/01/25 01:19:51;;;;;;;0.60;0.60;;;1.00;99.90;;;;;;5012628;28;20281;-84
2021/01/25 01:22:17;;;;;;;0.10;0.10;;;0.90;99.90;;;;;;5013968;28;20210;-84
2021/01/25 01:24:42;;;;;;;0.13;0.13;;;0.90;99.90;;;;;;5013812;28;20210;-85
2021/01/25 01:27:08;;;;;;;0.57;0.30;;;1.00;99.90;;;;;;5013630;28;20187;-85
2021/01/25 01:29:33;;;;;;;0.20;0.20;;;1.00;99.90;;;;;;5011489;28;20218;-85
2021/01/25 01:31:59;;;;;;;0.20;0.20;;;0.90;99.90;;;;;;5013233;28;20718;-85
2021/01/25 01:34:25;;;;;;;0.63;0.60;;;0.90;99.90;;;;;;5021887;28;20604;-85
2021/01/25 01:36:50;;;;;;;0.70;0.70;;;0.90;99.90;;;;;;5014817;28;20183;-84
2021/01/25 01:39:16;;;;;;;0.30;0.30;;;0.80;99.90;;;;;;5013327;28;20211;-85
2021/01/25 01:41:41;;;;;;;0.10;0.10;;;0.90;99.90;;;;;;5012909;28;20671;-87
2021/01/25 01:44:08;;;;;;;0.30;0.30;;;0.80;99.90;;;;;;5014620;28;20182;-85
2021/01/25 01:46:35;;;;;;;0.10;0.10;;;0.80;99.90;;;;;;5013615;28;20211;-83
2021/01/25 01:49:01;;;;;;;0.27;0.27;;;0.80;99.90;;;;;;5013450;28;20269;-84
2021/01/25 01:51:27;;;;;;;0.30;0.30;;;0.80;99.90;;;;;;5014104;28;20187;-85
2021/01/25 01:53:54;;;;;;;0.10;0.10;;;0.80;99.90;;;;;;5013201;28;20187;-86
2021/01/25 01:56:19;;;;;;;0.30;0.20;;;0.80;99.90;;;;;;5030019;28;20191;-84
2021/01/25 01:58:45;;;;;;;0.13;0.13;;;0.90;99.90;;;;;;5029107;28;20219;-86
2021/01/25 02:01:25;;;;;;;0.10;0.10;;;0.90;99.90;;;;;;5013848;28;20236;-87
2021/01/25 02:03:51;;;;;;;0.40;0.20;;;0.90;99.90;;;;;;5012977;28;20209;-84
2021/01/25 02:06:18;;;;;;;1.10;0.40;;;0.90;99.90;;;;;;5010761;28;20179;-84
2021/01/25 02:08:45;;;;;;;1.27;0.60;;;0.90;99.90;;;;;;5013212;28;20222;-85
2021/01/25 02:11:11;;;;;;;0.73;0.27;;;0.90;99.90;;;;;;5000743;28;20175;-84
2021/01/25 02:13:37;;;;;;;0.10;0.10;;;1.10;99.90;;;;;;5001464;28;20684;-85
2021/01/25 02:16:04;;;;;;;0.20;0.20;;;1.00;99.90;;;;;;5014169;28;20274;-85
2021/01/25 02:18:33;;;;;;;0.20;0.20;;;1.00;99.90;;;;;;5012657;28;20301;-85
2021/01/25 02:20:59;;;;;;;0.10;0.10;;;0.90;99.90;;;;;;4992735;28;20176;-86
2021/01/25 02:23:55;;;;;;;0.30;0.30;;;0.80;99.90;;;;;;5007869;28;20213;-86
2021/01/25 02:26:58;;;;;;;0.23;0.23;;;0.70;99.90;;;;;;5012854;28;20183;-83
2021/01/25 02:29:24;;;;;;;0.10;0.10;;;0.70;99.90;;;;;;5002194;28;20206;-84
2021/01/25 02:31:50;;;;;;;0.40;0.40;;;0.80;99.90;;;;;;5013381;28;20242;-85
2021/01/25 02:34:17;;;;;;;0.10;0.10;;;0.80;99.90;;;;;;5004903;28;20275;-85
2021/01/25 02:36:46;;;;;;;0.70;0.50;;;0.80;99.90;;;;;;5010942;28;20551;-84
2021/01/25 02:39:13;;;;;;;0.10;0.10;;;0.80;99.90;;;;;;5012505;28;20268;-83
2021/01/25 02:41:40;;;;;;;1.50;0.40;;;0.90;99.90;;;;;;5011821;28;20541;-85
2021/01/25 02:44:09;;;;;;;1.47;0.30;;;0.80;99.90;;;;;;5013778;28;20655;-84
2021/01/25 02:46:36;;;;;;;0.10;0.10;;;0.80;99.90;;;;;;5012424;28;20183;-85
2021/01/25 02:49:02;;;;;;;0.10;0.10;;;0.80;99.90;;;;;;5011265;28;20208;-84
2021/01/25 02:51:27;;;;;;;0.10;0.10;;;0.90;99.90;;;;;;5013103;28;20186;-86
2021/01/25 02:53:53;;;;;;;0.37;0.37;;;1.00;99.90;;;;;;5012391;28;20206;-84
2021/01/25 02:56:19;;;;;;;0.17;0.17;;;1.00;99.90;;;;;;5013551;28;20190;-84
2021/01/25 02:58:46;;;;;;;0.13;0.13;;;1.20;99.90;;;;;;5011981;28;20202;-84
2021/01/25 03:01:11;;;;;;;0.50;0.50;;;1.10;99.90;;;;;;5011609;28;20817;-85
2021/01/25 03:03:39;;;;;;;1.00;0.90;;;1.20;99.90;;;;;;5012969;28;20210;-84
2021/01/25 03:06:05;;;;;;;0.20;0.20;;;1.30;99.90;;;;;;5009668;28;20573;-84
2021/01/25 03:08:30;;;;;;;0.20;0.20;;;1.20;99.90;;;;;;5011935;28;20194;-84
2021/01/25 03:10:56;;;;;;;0.10;0.10;;;1.10;99.90;;;;;;5011233;28;20326;-83
2021/01/25 03:13:29;;;;;;;0.30;0.20;;;1.10;99.90;;;;;;5011891;28;20197;-85
2021/01/25 03:15:57;;;;;;;0.17;0.17;;;1.10;99.90;;;;;;5011836;28;20557;-84
2021/01/25 03:18:24;;;;;;;0.10;0.10;;;1.10;99.90;;;;;;5007639;28;20648;-84
2021/01/25 03:20:51;;;;;;;0.10;0.10;;;1.00;99.90;;;;;;5012032;28;20187;-85
2021/01/25 03:23:17;;;;;;;0.20;0.20;;;0.90;99.90;;;;;;5012822;28;20189;-84
2021/01/25 03:25:44;;;;;;;0.33;0.10;;;1.00;99.90;;;;;;5012838;28;20186;-84
2021/01/25 03:28:10;;;;;;;0.17;0.17;;;1.00;99.90;;;;;;5011754;28;20237;-84
2021/01/25 03:30:36;;;;;;;1.90;0.67;;;0.90;99.90;;;;;;5010953;28;20217;-84
2021/01/25 03:33:33;;;;;;;0.10;0.10;;;0.90;99.90;;;;;;5011282;28;20183;-85
2021/01/25 03:35:59;;;;;;;0.20;0.20;;;1.00;99.90;;;;;;5003774;28;20265;-84
2021/01/25 03:38:24;;;;;;;0.30;0.30;;;1.00;99.90;;;;;;5012275;28;20687;-87
2021/01/25 03:40:50;;;;;;;0.10;0.10;;;1.00;99.90;;;;;;5010765;28;20188;-89
2021/01/25 03:43:15;;;;;;;0.10;0.10;;;1.00;99.90;;;;;;5011332;28;20213;-84
2021/01/25 03:45:41;;;;;;;0.20;0.20;;;1.10;99.90;;;;;;5012641;28;20179;-84
2021/01/25 03:48:07;;;;;;;0.37;0.37;;;1.10;99.90;;;;;;5007741;28;20190;-84
2021/01/25 03:50:33;;;;;;;0.30;0.30;;;1.10;99.90;;;;;;5012066;28;20199;-84
2021/01/25 03:53:02;;;;;;;0.10;0.10;;;0.90;99.90;;;;;;5012163;28;20294;-84
2021/01/25 03:55:28;;;;;;;0.50;0.50;;;0.90;99.90;;;;;;5002546;28;20191;-86
2021/01/25 03:57:54;;;;;;;0.43;0.43;;;0.90;99.90;;;;;;5011141;28;20230;-86
2021/01/25 04:00:21;;;;;;;0.20;0.20;;;0.90;99.90;;;;;;5010645;28;20207;-84
2021/01/25 04:02:46;;;;;;;0.10;0.10;;;0.90;99.90;;;;;;5010571;28;20245;-84
2021/01/25 04:05:12;;;;;;;0.93;0.57;;;1.00;99.90;;;;;;5011058;28;20667;-85
2021/01/25 04:07:39;;;;;;;0.10;0.10;;;1.00;99.90;;;;;;5008535;28;20187;-84
2021/01/25 04:10:06;;;;;;;0.40;0.33;;;1.00;99.90;;;;;;5010946;28;20571;-85
2021/01/25 04:12:32;;;;;;;0.70;0.70;;;1.00;99.90;;;;;;4997025;28;20277;-84
2021/01/25 04:14:57;;;;;;;0.20;0.20;;;1.10;99.90;;;;;;5007143;28;20199;-85
2021/01/25 04:17:23;;;;;;;0.70;0.37;;;1.10;99.90;;;;;;5011154;28;20217;-87
2021/01/25 04:19:49;;;;;;;0.10;0.10;;;1.20;99.90;;;;;;5007901;28;20233;-86
2021/01/25 04:22:15;;;;;;;0.50;0.40;;;1.40;99.90;;;;;;5015876;28;20189;-86
2021/01/25 04:24:41;;;;;;;0.10;0.10;;;1.50;99.90;;;;;;5010953;28;20183;-86
2021/01/25 04:27:11;;;;;;;0.60;0.37;;;1.50;99.90;;;;;;5010621;28;20273;-85
2021/01/25 04:29:37;;;;;;;0.13;0.13;;;1.20;99.90;;;;;;5008913;28;20703;-84
2021/01/25 04:32:13;;;;;;;0.77;0.60;;;1.20;99.90;;;;;;5015804;28;20179;-84
2021/01/25 04:34:39;;;;;;;0.10;0.10;;;1.40;99.90;;;;;;5014558;28;20190;-84
2021/01/25 04:37:04;;;;;;;0.10;0.10;;;1.50;99.90;;;;;;5015936;28;20187;-84
2021/01/25 04:39:31;;;;;;;0.10;0.10;;;1.50;99.90;;;;;;5014604;28;20199;-85
2021/01/25 04:41:56;;;;;;;0.20;0.20;;;1.60;99.90;;;;;;5013788;28;20202;-84
2021/01/25 04:44:26;;;;;;;0.10;0.10;;;1.30;99.90;;;;;;5011283;28;20188;-84
2021/01/25 04:46:54;;;;;;;0.70;0.40;;;1.30;99.90;;;;;;5006272;28;20190;-84
2021/01/25 04:49:21;;;;;;;0.20;0.20;;;1.20;99.90;;;;;;5015688;28;20561;-84
2021/01/25 04:51:46;;;;;;;0.50;0.37;;;1.10;99.90;;;;;;5013743;28;20191;-85
2021/01/25 04:54:14;;;;;;;0.23;0.23;;;1.10;99.90;;;;;;5030534;28;20629;-85
2021/01/25 04:56:40;;;;;;;0.10;0.10;;;1.10;99.90;;;;;;5014228;28;20215;-85
2021/01/25 04:59:06;;;;;;;0.20;0.20;;;1.10;99.90;;;;;;5015490;28;20622;-84
2021/01/25 05:01:32;;;;;;;0.20;0.20;;;1.30;99.90;;;;;;5014313;28;20270;-84
2021/01/25 05:03:57;;;;;;;0.10;0.10;;;1.50;99.90;;;;;;5013886;28;20266;-84
2021/01/25 05:06:23;;;;;;;2.20;0.60;;;1.60;99.90;;;;;;5011625;28;20640;-85
2021/01/25 05:08:49;;;;;;;0.77;0.47;;;1.40;99.90;;;;;;5014408;28;20622;-84
2021/01/25 05:11:16;;;;;;;1.30;0.57;;;1.40;99.90;;;;;;5012992;28;20190;-84
2021/01/25 05:13:48;;;;;;;0.60;0.27;;;1.50;99.90;;;;;;5010894;28;20238;-86
2021/01/25 05:16:19;;;;;;;0.30;0.30;;;1.50;99.90;;;;;;5013596;28;20187;-85
2021/01/25 05:18:46;;;;;;;0.10;0.10;;;1.50;99.90;;;;;;5014727;28;20211;-84
2021/01/25 05:21:12;;;;;;;0.37;0.37;;;1.70;99.90;;;;;;5013183;28;20188;-85
2021/01/25 05:23:41;;;;;;;0.17;0.17;;;1.50;99.90;;;;;;5013182;28;20197;-85
2021/01/25 05:26:10;;;;;;;0.20;0.20;;;1.60;99.90;;;;;;5013482;28;20194;-84
2021/01/25 05:28:43;;;;;;;0.73;0.67;;;1.80;99.90;;;;;;5013520;28;20645;-87
2021/01/25 05:31:23;;;;;;;1.60;1.40;;;1.60;99.90;;;;;;5013360;28;20198;-85
2021/01/25 05:33:49;;;;;;;0.37;0.37;;;1.50;99.90;;;;;;5005572;28;20685;-84
2021/01/25 05:36:35;;;;;;;0.30;0.30;;;1.60;99.90;;;;;;5013194;28;20198;-85
2021/01/25 05:39:03;;;;;;;0.30;0.30;;;1.50;99.90;;;;;;5003800;28;20212;-85
2021/01/25 05:41:28;;;;;;;1.23;0.50;;;1.40;99.90;;;;;;5026567;28;20344;-84
2021/01/25 05:44:38;;;;;;;1.23;1.10;;;1.30;99.90;;;;;;5013705;28;20611;-85
2021/01/25 05:47:13;;;;;;;0.10;0.10;;;1.20;99.90;;;;;;5013115;28;20182;-87
2021/01/25 05:49:38;;;;;;;0.53;0.53;;;1.10;99.90;;;;;;5008468;28;20289;-87
2021/01/25 05:52:15;;;;;;;0.20;0.20;;;1.20;99.90;;;;;;5013017;28;20222;-87
2021/01/25 05:54:42;;;;;;;0.07;0.07;;;1.40;99.90;;;;;;5013222;28;20321;-85
2021/01/25 05:57:07;;;;;;;0.27;0.20;;;1.40;99.90;;;;;;5012975;28;20226;-85
2021/01/25 05:59:33;;;;;;;0.37;0.37;;;1.20;99.90;;;;;;5000066;28;20242;-86
2021/01/25 06:02:01;;;;;;;0.27;0.27;;;1.30;99.90;;;;;;5013001;28;20190;-84
2021/01/25 06:04:27;;;;;;;0.47;0.47;;;1.40;99.90;;;;;;5012696;28;20194;-86
2021/01/25 06:07:03;;;;;;;0.23;0.23;;;1.60;99.90;;;;;;5003206;28;20214;-85
2021/01/25 06:09:36;;;;;;;0.40;0.40;;;1.70;99.90;;;;;;5024852;28;20289;-85
2021/01/25 06:12:06;;;;;;;0.40;0.40;;;1.80;99.90;;;;;;5012311;28;20183;-84
2021/01/25 06:14:46;;;;;;;0.43;0.43;;;1.70;99.90;;;;;;5012020;28;20278;-85
2021/01/25 06:17:14;;;;;;;0.20;0.20;;;1.90;99.90;;;;;;5011947;28;20275;-87
2021/01/25 06:19:41;;;;;;;0.10;0.10;;;1.90;99.90;;;;;;5011269;28;20322;-86
2021/01/25 06:22:09;;;;;;;1.13;1.00;;;1.80;99.90;;;;;;5007852;28;20306;-84
2021/01/25 06:24:36;;;;;;;0.63;0.37;;;1.80;99.90;;;;;;5013895;28;20221;-84
2021/01/25 06:27:02;;;;;;;0.27;0.27;;;1.60;99.90;;;;;;5012882;28;20190;-84
2021/01/25 06:29:30;;;;;;;0.33;0.30;;;1.60;99.90;;;;;;5011811;28;20223;-86
2021/01/25 06:31:59;;;;;;;0.10;0.10;;;1.60;99.90;;;;;;5011878;28;20195;-85
2021/01/25 06:34:27;;;;;;;0.20;0.20;;;1.60;99.90;;;;;;5011632;28;20191;-84
2021/01/25 06:36:53;;;;;;;0.40;0.40;;;1.70;99.90;;;;;;5013494;28;20229;-85
2021/01/25 06:39:26;;;;;;;0.20;0.20;;;1.80;99.90;;;;;;5006278;28;20211;-84
2021/01/25 06:42:01;;;;;;;0.50;0.50;;;1.90;99.90;;;;;;5011104;28;20187;-84
2021/01/25 06:44:28;;;;;;;0.20;0.20;;;1.90;99.90;;;;;;5012244;28;20196;-86
2021/01/25 06:46:59;;;;;;;0.20;0.20;;;1.80;99.90;;;;;;5009112;28;20203;-84
2021/01/25 06:49:27;;;;;;;0.20;0.20;;;1.90;99.90;;;;;;5006125;28;20778;-85
2021/01/25 06:51:54;;;;;;;0.50;0.50;;;2.00;99.90;;;;;;5013729;28;20548;-84
2021/01/25 06:54:44;;;;;;;0.20;0.20;;;2.10;99.90;;;;;;5011510;28;20227;-84
2021/01/25 06:57:20;;;;;;;0.20;0.20;;;2.00;99.90;;;;;;5013311;28;20225;-84
2021/01/25 06:59:49;;;;;;;0.10;0.10;;;2.10;99.90;;;;;;5012854;28;20265;-84
2021/01/25 07:02:59;;;;;;;0.23;0.23;;;2.30;99.90;;;;;;5012005;28;20195;-85
2021/01/25 07:05:30;;;;;;;0.23;0.23;;;2.20;99.90;;;;;;5004958;28;20273;-85
2021/01/25 07:08:14;;;;;;;0.10;0.10;;;2.20;99.90;;;;;;5011461;28;20184;-84
2021/01/25 07:10:55;;;;;;;0.83;0.63;;;2.20;99.90;;;;;;5010251;28;20222;-84
2021/01/25 07:13:22;;;;;;;0.53;0.53;;;2.20;99.90;;;;;;5013408;28;20186;-85
2021/01/25 07:15:55;;;;;;;0.10;0.10;;;2.20;99.90;;;;;;5072579;28;20510;-84
2021/01/25 07:18:24;;;;;;;0.10;0.10;;;1.80;99.90;;;;;;5046583;28;20273;-82
2021/01/25 07:20:53;;;;;;;0.37;0.37;;;1.40;99.90;;;;;;5051697;28;20193;-82
2021/01/25 07:23:20;;;;;;;2.63;0.70;;;1.30;99.90;;;;;;5050135;28;20725;-85
2021/01/25 07:26:06;;;;;;;0.20;0.20;;;1.40;99.90;;;;;;5044625;28;20178;-82
2021/01/25 07:28:54;;;;;;;0.73;0.43;;;1.60;99.90;;;;;;5055501;28;20224;-90
2021/01/25 07:31:20;;;;;;;0.87;0.37;;;1.90;99.90;;;;;;5050099;28;20170;-84
2021/01/25 07:33:45;;;;;;;0.40;0.40;;;1.80;99.90;;;;;;5066354;28;20759;-84
2021/01/25 07:36:11;;;;;;;0.27;0.27;;;1.90;99.90;;;;;;5054942;28;20552;-86
2021/01/25 07:38:37;;;;;;;0.20;0.20;;;2.10;99.90;;;;;;5054590;28;20687;-85
2021/01/25 07:41:02;;;;;;;0.37;0.37;;;2.20;99.90;;;;;;5048737;28;20174;-83
2021/01/25 07:43:30;;;;;;;0.47;0.40;;;2.30;99.90;;;;;;5049800;28;20544;-83
2021/01/25 07:46:10;;;;;;;1.50;0.27;;;2.40;99.90;;;;;;5064049;28;20178;-84
2021/01/25 07:48:50;;;;;;;0.30;0.30;;;2.60;99.90;;;;;;5044357;28;22109;-83
2021/01/25 07:51:27;;;;;;;0.20;0.20;;;2.60;99.90;;;;;;5062428;28;20610;-82
2021/01/25 07:53:54;;;;;;;0.63;0.20;;;2.70;99.90;;;;;;5057342;28;20200;-82
2021/01/25 07:56:23;;;;;;;0.37;0.37;;;2.80;99.90;;;;;;5050371;28;20188;-87
2021/01/25 07:59:17;;;;;;;0.20;0.20;;;2.80;99.90;;;;;;5067820;28;20297;-83
2021/01/25 08:01:59;;;;;;;0.73;0.60;;;2.80;99.90;;;;;;5043856;28;20230;-85
2021/01/25 08:04:29;;;;;;;0.23;0.23;;;2.70;99.90;;;;;;5056918;28;20576;-82
2021/01/25 08:06:58;;;;;;;0.90;0.90;;;2.70;99.90;;;;;;5052826;28;20194;-85
2021/01/25 08:09:24;;;;;;;0.40;0.33;;;2.40;99.90;;;;;;5042165;28;20206;-82
2021/01/25 08:11:51;;;;;;;0.57;0.33;;;2.50;99.90;;;;;;5032442;28;20179;-82
2021/01/25 08:14:35;;;;;;;0.30;0.30;;;2.20;99.90;;;;;;5039616;28;20210;-83
2021/01/25 08:17:05;;;;;;;0.20;0.20;;;2.30;99.90;;;;;;5049019;28;20185;-82
2021/01/25 08:19:55;;;;;;;1.53;0.40;;;2.00;99.90;;;;;;5061544;28;20661;-85
2021/01/25 08:22:26;;;;;;;0.30;0.30;;;2.30;99.90;;;;;;5056242;28;20170;-82
2021/01/25 08:24:54;;;;;;;0.70;0.70;;;2.10;99.90;;;;;;5054452;28;20187;-84
2021/01/25 08:27:19;;;;;;;0.17;0.17;;;2.10;99.90;;;;;;5045744;28;20178;-85
2021/01/25 08:29:48;;;;;;;0.23;0.23;;;2.20;99.90;;;;;;5039964;28;20207;-83
2021/01/25 08:32:23;;;;;;;0.17;0.17;;;2.40;99.90;;;;;;5046167;28;20190;-83
2021/01/25 08:35:04;;;;;;;0.30;0.30;;;2.20;99.90;;;;;;5046839;28;20550;-83
2021/01/25 08:37:32;;;;;;;0.47;0.47;;;2.20;99.90;;;;;;5044121;28;20221;-86
2021/01/25 08:40:22;;;;;;;0.43;0.43;;;2.50;99.90;;;;;;5038670;28;20701;-83
2021/01/25 08:42:49;;;;;;;0.20;0.20;;;2.50;99.90;;;;;;5043148;28;20530;-85
2021/01/25 08:45:24;;;;;;;0.37;0.17;;;2.60;99.90;;;;;;5047753;28;20190;-83
2021/01/25 08:47:50;;;;;;;0.57;0.57;;;2.60;99.90;;;;;;5035110;28;20206;-84
2021/01/25 08:50:24;;;;;;;0.50;0.50;;;2.40;99.90;;;;;;5046814;28;20202;-85
2021/01/25 08:53:07;;;;;;;1.13;0.40;;;2.40;99.90;;;;;;5046886;28;20241;-86
2021/01/25 08:55:42;;;;;;;0.60;0.60;;;2.60;99.90;;;;;;5045103;28;20739;-87
2021/01/25 08:58:24;;;;;;;0.27;0.27;;;2.60;99.90;;;;;;5039357;28;20198;-85
2021/01/25 09:00:49;;;;;;;0.73;0.50;;;2.20;99.90;;;;;;5030289;28;20183;-85
2021/01/25 09:03:16;;;;;;;1.33;0.53;;;2.30;99.90;;;;;;5041195;28;20205;-85
2021/01/25 09:05:42;;;;;;;0.10;0.10;;;2.60;99.90;;;;;;5041301;28;20174;-85
2021/01/25 09:08:08;;;;;;;1.90;0.53;;;2.60;99.90;;;;;;5043029;28;20182;-86
2021/01/25 09:10:34;;;;;;;0.27;0.27;;;2.80;99.90;;;;;;5036841;28;20260;-85
2021/01/25 09:13:00;;;;;;;0.30;0.30;;;3.10;99.90;;;;;;5042352;28;20186;-85
2021/01/25 09:15:26;;;;;;;0.30;0.30;;;3.00;99.90;;;;;;5037462;28;20211;-85
2021/01/25 09:17:56;;;;;;;0.30;0.30;;;2.80;99.90;;;;;;5040778;28;20190;-85
2021/01/25 09:20:21;;;;;;;0.30;0.30;;;2.80;99.90;;;;;;5039980;28;20225;-85
2021/01/25 09:22:47;;;;;;;0.87;0.53;;;2.90;99.90;;;;;;5049175;28;20662;-85
2021/01/25 09:25:15;;;;;;;0.40;0.40;;;2.70;99.90;;;;;;5028692;28;20647;-85
2021/01/25 09:27:41;;;;;;;0.73;0.73;;;2.90;99.90;;;;;;5023158;28;20303;-90
2021/01/25 09:30:09;;;;;;;0.40;0.30;;;3.30;99.90;;;;;;5027557;28;20201;-86
2021/01/25 09:32:35;;;;;;;0.53;0.53;;;3.50;99.90;;;;;;5022004;28;20182;-86
2021/01/25 09:35:01;;;;;;;0.13;0.13;;;3.30;99.90;;;;;;5033216;28;20233;-88
2021/01/25 09:37:27;;;;;;;2.57;0.27;;;3.30;99.90;;;;;;5037204;28;20740;-88
2021/01/25 09:39:52;;;;;;;2.73;0.70;;;3.30;99.90;;;;;;5037796;28;20296;-87
2021/01/25 09:42:18;;;;;;;0.67;0.67;;;3.30;99.90;;;;;;5044939;28;20214;-85
2021/01/25 09:44:43;;;;;;;2.17;1.47;;;3.60;99.90;;;;;;5025717;28;20222;-86
2021/01/25 09:47:09;;;;;;;0.77;0.70;;;3.70;99.90;;;;;;5027083;28;20220;-86
2021/01/25 09:50:13;;;;;;;0.57;0.30;;;3.90;99.90;;;;;;5041118;28;20258;-85
2021/01/25 09:52:40;;;;;;;0.47;0.27;;;4.00;99.90;;;;;;5035337;28;20236;-85
2021/01/25 09:55:06;;;;;;;0.53;0.47;;;4.20;99.90;;;;;;5028218;28;20219;-85
2021/01/25 09:57:32;;;;;;;0.80;0.40;;;4.40;99.90;;;;;;5037987;28;20192;-85
2021/01/25 09:59:58;;;;;;;0.20;0.20;;;4.50;99.90;;;;;;5034775;28;20722;-86
2021/01/25 10:02:23;;;;;;;0.53;0.53;;;4.00;99.90;;;;;;5032034;28;20186;-86
2021/01/25 10:04:49;;;;;;;0.87;0.40;;;4.20;99.90;;;;;;5024008;28;20283;-87
2021/01/25 10:07:14;;;;;;;0.80;0.80;;;4.30;99.90;;;;;;5031561;28;20258;-86
2021/01/25 10:09:40;;;;;;;2.47;1.50;;;3.90;99.90;;;;;;5021580;28;20204;-84
2021/01/25 10:12:05;;;;;;;0.50;0.50;;;3.90;99.90;;;;;;5021926;28;20207;-85
2021/01/25 10:14:32;;;;;;;2.53;2.43;;;4.20;99.90;;;;;;5033502;28;20304;-85
2021/01/25 10:16:58;;;;;;;0.20;0.20;;;4.30;99.90;;;;;;5040593;28;20263;-85
2021/01/25 10:19:29;;;;;;;0.53;0.53;;;4.40;99.90;;;;;;5042105;28;20572;-85
2021/01/25 10:21:55;;;;;;;0.20;0.20;;;4.50;99.90;;;;;;5041393;28;20200;-86
2021/01/25 10:24:20;;;;;;;0.10;0.10;;;4.40;99.90;;;;;;5028927;28;20246;-84
2021/01/25 10:27:11;;;;;;;0.50;0.50;;;4.30;99.90;;;;;;5040297;28;20241;-85
2021/01/25 10:29:36;;;;;;;0.60;0.60;;;4.50;99.90;;;;;;5036261;28;20208;-85
2021/01/25 10:32:02;;;;;;;0.37;0.37;;;3.60;99.90;;;;;;5029830;28;20201;-84
2021/01/25 10:34:28;;;;;;;1.00;0.90;;;3.30;99.90;;;;;;5040669;28;20209;-85
2021/01/25 10:36:53;;;;;;;1.03;0.47;;;3.50;99.90;;;;;;5046137;28;20239;-85
2021/01/25 10:39:19;;;;;;;0.53;0.53;;;3.80;99.90;;;;;;5029366;28;20209;-84
2021/01/25 10:41:45;;;;;;;0.37;0.37;;;4.00;99.90;;;;;;5033900;28;20589;-85
2021/01/25 10:44:15;;;;;;;0.57;0.57;;;4.00;99.90;;;;;;5032808;28;20559;-85
2021/01/25 10:46:41;;;;;;;1.00;0.73;;;4.10;99.90;;;;;;5046942;28;20245;-85
2021/01/25 10:49:07;;;;;;;0.23;0.23;;;4.00;99.90;;;;;;5016708;28;20210;-85
2021/01/25 10:51:33;;;;;;;1.23;0.40;;;4.00;99.90;;;;;;5027948;28;20639;-85
2021/01/25 10:53:59;;;;;;;0.23;0.20;;;4.10;99.90;;;;;;5029978;28;20212;-85
2021/01/25 10:56:24;;;;;;;2.57;0.97;;;4.00;99.90;;;;;;5029480;28;20184;-85
2021/01/25 10:58:50;;;;;;;0.97;0.70;;;4.40;99.90;;;;;;5026395;28;20737;-84
2021/01/25 11:01:15;;;;;;;1.03;1.03;;;4.40;99.90;;;;;;5033808;28;20179;-85
2021/01/25 11:03:41;;;;;;;2.13;0.97;;;3.80;99.90;;;;;;5018129;28;20188;-85
2021/01/25 11:06:06;;;;;;;0.80;0.80;;;3.80;99.90;;;;;;5036177;28;20185;-85
2021/01/25 11:08:32;;;;;;;0.40;0.40;;;4.20;99.90;;;;;;5036091;28;20233;-87
2021/01/25 11:10:58;;;;;;;0.50;0.40;;;4.60;99.90;;;;;;5042926;28;20223;-86
2021/01/25 11:13:23;;;;;;;0.33;0.33;;;4.80;99.90;;;;;;5016744;28;20181;-85
2021/01/25 11:15:49;;;;;;;0.40;0.40;;;5.00;99.90;;;;;;5042268;28;20208;-85
2021/01/25 11:18:14;;;;;;;0.57;0.57;;;5.20;99.90;;;;;;5047595;28;20723;-85
2021/01/25 11:20:40;;;;;;;0.83;0.30;;;5.20;99.90;;;;;;5040626;28;20204;-85
2021/01/25 11:23:05;;;;;;;0.10;0.10;;;5.30;99.90;;;;;;5032330;28;20189;-85
2021/01/25 11:25:33;;;;;;;0.27;0.20;;;5.50;99.90;;;;;;5041280;28;20189;-84
2021/01/25 11:27:58;;;;;;;0.80;0.50;;;5.60;99.90;;;;;;5030310;28;20208;-85
2021/01/25 11:30:24;;;;;;;3.60;0.80;;;5.50;99.90;;;;;;5031932;28;20221;-85
2021/01/25 11:32:50;;;;;;;0.30;0.30;;;5.50;99.90;;;;;;5031067;28;20192;-85
2021/01/25 11:35:15;;;;;;;0.30;0.30;;;5.30;99.90;;;;;;5033236;28;20694;-84
2021/01/25 11:37:41;;;;;;;0.43;0.30;;;5.00;99.90;;;;;;5039975;28;20710;-88
2021/01/25 11:40:08;;;;;;;1.70;1.37;;;5.00;99.90;;;;;;5041154;28;20214;-85
2021/01/25 11:42:33;;;;;;;0.20;0.20;;;4.70;99.90;;;;;;5027881;28;20209;-85
2021/01/25 11:44:59;;;;;;;0.53;0.53;;;4.80;99.90;;;;;;5037272;28;20583;-87
2021/01/25 11:47:24;;;;;;;0.20;0.20;;;4.90;99.90;;;;;;5031698;28;20228;-85
2021/01/25 11:49:50;;;;;;;0.77;0.70;;;5.10;99.90;;;;;;5021493;28;20253;-86
2021/01/25 11:52:15;;;;;;;0.67;0.67;;;5.20;99.90;;;;;;5033838;28;20650;-85
2021/01/25 11:55:19;;;;;;;0.63;0.40;;;5.10;99.90;;;;;;5028567;28;20209;-86
2021/01/25 11:57:52;;;;;;;0.33;0.33;;;4.60;99.90;;;;;;5047447;28;20190;-85
2021/01/25 12:00:18;;;;;;;1.43;0.67;;;4.40;99.90;;;;;;5033133;28;20209;-85
2021/01/25 12:02:50;;;;;;;1.33;0.77;;;4.50;99.90;;;;;;5033633;28;20739;-85
2021/01/25 12:05:16;;;;;;;0.97;0.83;;;4.70;99.90;;;;;;5040279;28;20190;-85
2021/01/25 12:08:16;;;;;;;0.80;0.80;;;4.90;99.90;;;;;;5039073;28;20184;-85
2021/01/25 12:10:46;;;;;;;0.73;0.63;;;5.20;99.90;;;;;;5035290;28;20213;-84
2021/01/25 12:13:21;;;;;;;2.47;0.50;;;5.30;99.90;;;;;;5040616;28;20688;-85
2021/01/25 12:16:22;;;;;;;0.20;0.20;;;5.40;99.90;;;;;;5027208;28;20202;-85
2021/01/25 12:18:53;;;;;;;0.50;0.50;;;5.50;99.90;;;;;;5042736;28;20199;-85
2021/01/25 12:21:19;;;;;;;0.30;0.30;;;5.10;99.90;;;;;;5027089;28;20653;-85
2021/01/25 12:24:03;;;;;;;1.00;1.00;;;4.90;99.90;;;;;;5030605;28;20181;-86
2021/01/25 12:26:29;;;;;;;0.73;0.70;;;5.10;99.90;;;;;;5047562;28;20189;-85
2021/01/25 12:28:55;;;;;;;0.67;0.67;;;5.10;99.90;;;;;;5040861;28;20199;-85
2021/01/25 12:31:28;;;;;;;1.60;0.50;;;5.20;99.90;;;;;;5030050;28;20667;-85
2021/01/25 12:34:01;;;;;;;0.20;0.20;;;5.20;99.90;;;;;;5032699;28;20216;-85
2021/01/25 12:36:27;;;;;;;0.33;0.33;;;5.20;99.90;;;;;;5047434;28;20223;-85
2021/01/25 12:38:59;;;;;;;1.30;0.93;;;5.20;99.90;;;;;;5052226;28;20204;-84
2021/01/25 12:41:24;;;;;;;0.77;0.73;;;5.20;99.90;;;;;;5027858;28;20187;-84
2021/01/25 12:44:34;;;;;;;0.40;0.40;;;5.10;99.90;;;;;;5034422;28;20205;-85
2021/01/25 12:47:01;;;;;;;0.20;0.20;;;4.90;99.90;;;;;;5033149;28;20190;-85
2021/01/25 12:49:27;;;;;;;0.13;0.13;;;4.60;99.90;;;;;;5035664;28;20684;-87
2021/01/25 12:51:54;;;;;;;0.47;0.40;;;4.70;99.90;;;;;;5039264;28;20273;-83
2021/01/25 12:54:19;;;;;;;0.77;0.77;;;4.70;99.90;;;;;;5030416;28;20206;-88
2021/01/25 12:56:46;;;;;;;0.20;0.20;;;4.90;99.90;;;;;;5046892;28;20200;-88
2021/01/25 12:59:13;;;;;;;0.10;0.10;;;5.00;99.90;;;;;;5048856;28;20203;-85
2021/01/25 13:01:39;;;;;;;1.00;0.43;;;5.10;99.90;;;;;;5043982;28;20188;-85
2021/01/25 13:04:04;;;;;;;1.70;1.17;;;5.20;99.90;;;;;;5049236;28;20324;-83
2021/01/25 13:06:30;;;;;;;0.43;0.43;;;5.20;99.90;;;;;;5040416;28;20188;-84
2021/01/25 13:08:55;;;;;;;0.67;0.67;;;5.30;99.90;;;;;;5061627;28;20209;-86